Airfield :
LOGIN :

Register | Disclaimer

   EN    FR    IT 

 










Legend :    VFR   Marginal VFR   IFR   Intensive IFR   Very Intensive IFR
Visi :
Ceiling :
>= 8 km
>= 3000ft
5 to 8 km
1000 to 3000 ft
1500m to 5 km
500 to 1000 ft
800 to 1500m
200 to 500 ft
< 800m
< 200 ft
Symbols :   Thunderstorms  Fog  Heavy snow  Heavy precipitations  Wind > 20 kt
SIGMETs :     Misc.  Thunderstorms  Icing  Turbulence  Mountain Waves  Volcanic Ashes






- Airport Elevation : 147 ft
- IATA code : DUS


EDDL - Düsseldorf Int.

CURRENT METAR :
  • 051250Z 06012KT 020V090 9999 FEW044 06/M05 Q1029 NOSIG

EXPIRED METARs :
  • 051220Z 02010KT 350V070 9999 FEW040 05/M05 Q1029 NOSIG
  • 051150Z 05011KT 010V080 9999 FEW040 05/M05 Q1029 NOSIG
  • 051120Z 03010KT 360V060 9999 FEW034 05/M04 Q1029 NOSIG
  • 051050Z 02011KT 9999 FEW030 04/M05 Q1028 NOSIG
  • 051020Z 03010KT 9999 FEW024 04/M04 Q1028 NOSIG
  • 050950Z 02010KT 9999 FEW020 03/M03 Q1028 NOSIG

TAF TAF EDDL
Valid from the 05 at 12:00 until the 06 at 18:00 UTC


051100Z 0512/0618 03011KT 9999 FEW030
BECMG 0518/0520 VRB02KT
BECMG 0610/0612 02006KT



MET'MAP, your aeronautical weather chart ! - Copyright ORBIFLY December 2007 - Disclaimer

ORBIFLY MET'MAP TEAM :

Programming & Development : Alexandra Zaïnal
Concept & original design : Baudouin d'Aumeries
Assistance for programming : Marc-Olivier Méhu
Technical & hardware support : Manuel Goepfert

Contact : metmap@orbifly.com




SOURCES & CREDITS :

   NOAA